Time;durP1;ratioP1;P1;durP2;ratioP2;P2;SDS_P1;SDS_P2;PMS_P1;PMS_P2;Temp;Humidity;BMP_temperature;BMP_pressure;BME280_temperature;BME280_humidity;BME280_pressure;Samples;Min_cycle;Max_cycle;Signal;HPM_P1;HPM_P2
2021/06/11 00:01:52;;;;;;;3.93;3.60;;;;;;;19.15;67.71;100625.66;5049493;27;102132;-72
2021/06/11 00:04:18;;;;;;;4.50;3.72;;;;;;;19.15;68.09;100629.22;5046650;27;103879;-72
2021/06/11 00:06:45;;;;;;;4.35;4.00;;;;;;;19.14;67.84;100629.53;5056929;27;102213;-72
2021/06/11 00:09:14;;;;;;;4.93;3.20;;;;;;;19.14;68.01;100624.03;5053896;27;102482;-72
2021/06/11 00:11:41;;;;;;;4.03;3.73;;;;;;;19.14;68.09;100616.56;5048973;27;102582;-72
2021/06/11 00:14:11;;;;;;;4.43;3.92;;;;;;;19.15;67.95;100628.41;5051869;27;103734;-72
2021/06/11 00:16:37;;;;;;;4.00;3.60;;;;;;;19.15;68.06;100633.94;5047041;27;102518;-72
2021/06/11 00:19:04;;;;;;;4.13;3.60;;;;;;;19.15;67.55;100636.69;5048223;27;102326;-73
2021/06/11 00:21:30;;;;;;;7.65;3.70;;;;;;;19.14;68.02;100626.78;5048510;27;102442;-72
2021/06/11 00:23:57;;;;;;;4.40;3.50;;;;;;;19.14;67.93;100621.25;5045300;27;103705;-71
2021/06/11 00:26:24;;;;;;;5.57;3.40;;;;;;;19.14;68.11;100621.25;5045843;27;101971;-72
2021/06/11 00:28:50;;;;;;;3.83;3.42;;;;;;;19.14;67.78;100622.06;5048291;27;101999;-72
2021/06/11 00:31:19;;;;;;;3.55;3.25;;;;;;;19.13;68.10;100623.22;5049636;27;102569;-72
2021/06/11 00:33:46;;;;;;;4.18;3.65;;;;;;;19.13;67.60;100625.97;5047356;27;104913;-72
2021/06/11 00:36:12;;;;;;;4.13;3.72;;;;;;;19.13;68.01;100620.47;5054592;27;102491;-72
2021/06/11 00:38:39;;;;;;;3.70;3.40;;;;;;;19.14;67.69;100615.75;5046802;27;103623;-71
2021/06/11 00:41:06;;;;;;;4.10;3.63;;;;;;;19.14;67.65;100618.50;5049366;27;102682;-72
2021/06/11 00:43:33;;;;;;;4.30;3.72;;;;;;;19.12;68.05;100618.84;5051530;27;103930;-72
2021/06/11 00:46:00;;;;;;;4.60;3.15;;;;;;;19.13;68.20;100625.97;5045872;27;102387;-71
2021/06/11 00:48:28;;;;;;;4.10;3.30;;;;;;;19.14;67.67;100613.00;5048559;27;102370;-71
2021/06/11 00:50:56;;;;;;;3.38;3.08;;;;;;;19.12;68.24;100615.28;5050676;27;102730;-71
2021/06/11 00:53:22;;;;;;;4.07;3.47;;;;;;;19.12;68.28;100621.59;5047735;27;103832;-72
2021/06/11 00:55:49;;;;;;;3.85;3.45;;;;;;;19.13;67.91;100614.13;5046731;27;103213;-72
2021/06/11 00:58:16;;;;;;;3.60;3.30;;;;;;;19.12;68.13;100610.56;5045044;27;102064;-72
2021/06/11 01:00:45;;;;;;;5.38;3.35;;;;;;;19.12;68.21;100612.53;5051739;27;102556;-71
2021/06/11 01:03:12;;;;;;;3.93;3.47;;;;;;;19.12;67.95;100609.75;5049733;27;103903;-72
2021/06/11 01:05:41;;;;;;;5.78;3.50;;;;;;;19.12;68.16;100612.53;5049963;27;103168;-72
2021/06/11 01:08:10;;;;;;;4.00;3.28;;;;;;;19.12;67.77;100612.53;5049632;27;102508;-71
2021/06/11 01:10:37;;;;;;;;;;;;;;;19.12;67.66;100601.50;5053916;27;103682;-71
2021/06/11 01:13:05;;;;;;;4.32;3.10;;;;;;;19.11;67.80;100599.84;5045196;27;103874;-72
2021/06/11 01:15:32;;;;;;;3.60;3.30;;;;;;;19.11;67.86;100597.09;5051598;27;102415;-72
2021/06/11 01:18:00;;;;;;;4.25;3.42;;;;;;;19.12;67.91;100607.00;5063784;27;102531;-72
2021/06/11 01:20:26;;;;;;;4.25;3.53;;;;;;;19.11;67.73;100599.84;5048869;27;102920;-72
2021/06/11 01:23:06;;;;;;;3.95;3.55;;;;;;;19.10;67.76;100615.59;5054825;27;102731;-72
2021/06/11 01:25:38;;;;;;;3.47;3.17;;;;;;;19.11;68.06;100610.88;5052739;27;102058;-72
2021/06/11 01:28:07;;;;;;;3.70;3.05;;;;;;;19.10;68.18;100603.75;5050143;27;102515;-72
2021/06/11 01:30:34;;;;;;;3.55;3.25;;;;;;;19.10;68.03;100615.59;5053497;27;102320;-72
2021/06/11 01:33:03;;;;;;;3.97;3.63;;;;;;;19.11;67.79;100610.88;5049316;27;103948;-72
2021/06/11 01:35:33;;;;;;;;;;;;;;;19.10;67.65;100612.03;5048614;27;102579;-72
2021/06/11 01:38:02;;;;;;;3.63;3.33;;;;;;;19.09;67.79;100602.97;5041846;27;102636;-71
2021/06/11 01:40:32;;;;;;;3.75;3.40;;;;;;;19.10;68.12;100612.84;5052242;27;102605;-72
2021/06/11 01:43:01;;;;;;;3.80;3.42;;;;;;;19.11;67.81;100610.88;5064410;27;103876;-72
2021/06/11 01:45:30;;;;;;;3.92;3.22;;;;;;;19.10;67.82;100615.59;5060862;27;102675;-71
2021/06/11 01:47:59;;;;;;;3.80;3.40;;;;;;;19.10;67.80;100609.28;5064955;27;102647;-71
2021/06/11 01:50:26;;;;;;;;;;;;;;;19.09;68.15;100614.00;5050876;27;102383;-72
2021/06/11 01:52:54;;;;;;;3.78;3.45;;;;;;;19.09;67.87;100613.19;5050953;27;104086;-72
2021/06/11 01:55:23;;;;;;;3.83;3.43;;;;;;;19.09;67.68;100618.69;5051428;27;102983;-72
2021/06/11 01:57:49;;;;;;;4.00;3.53;;;;;;;19.10;67.88;100614.78;5053611;27;102318;-72
2021/06/11 02:00:18;;;;;;;3.90;3.50;;;;;;;19.09;67.93;100610.44;5055504;27;102759;-72
2021/06/11 02:02:47;;;;;;;3.50;3.10;;;;;;;19.09;68.20;100610.44;5051862;27;103915;-71
2021/06/11 02:05:13;;;;;;;;;;;;;;;19.09;67.93;100613.19;5050506;27;102596;-71
2021/06/11 02:07:41;;;;;;;3.90;3.50;;;;;;;19.09;68.21;100613.19;5043469;27;102385;-71
2021/06/11 02:10:10;;;;;;;5.55;3.80;;;;;;;19.09;68.30;100607.66;5049318;27;102789;-71
2021/06/11 02:12:37;;;;;;;4.10;3.50;;;;;;;19.09;67.84;100613.19;5048932;27;104051;-71
2021/06/11 02:15:06;;;;;;;4.18;3.30;;;;;;;19.08;68.26;100614.34;5054164;27;102508;-71
2021/06/11 02:17:37;;;;;;;4.70;3.78;;;;;;;19.09;68.33;100622.25;5050559;27;102318;-71
2021/06/11 02:20:07;;;;;;;3.40;3.10;;;;;;;19.09;68.07;100618.69;5057633;27;102655;-71
2021/06/11 02:22:36;;;;;;;3.80;3.47;;;;;;;19.09;68.14;100618.69;5052876;27;103876;-71
2021/06/11 02:25:03;;;;;;;3.45;3.00;;;;;;;19.08;67.97;100628.94;5050781;27;102505;-71
2021/06/11 02:27:31;;;;;;;3.80;3.38;;;;;;;19.08;68.15;100623.41;5048499;27;102395;-72
2021/06/11 02:29:58;;;;;;;3.63;3.17;;;;;;;19.08;67.94;100623.41;5050987;27;102969;-71
2021/06/11 02:32:26;;;;;;;3.40;3.10;;;;;;;19.08;68.37;100628.13;5047796;27;104062;-71
2021/06/11 02:34:53;;;;;;;3.47;2.92;;;;;;;19.08;68.35;100617.09;5062145;27;101978;-72
2021/06/11 02:37:20;;;;;;;3.13;2.83;;;;;;;19.08;67.98;100628.13;5046136;27;101925;-72
2021/06/11 02:39:47;;;;;;;3.88;3.15;;;;;;;19.08;68.39;100628.94;5050804;27;102550;-72
2021/06/11 02:42:14;;;;;;;3.22;2.92;;;;;;;19.08;68.16;100622.59;5059947;27;103918;-72
2021/06/11 02:44:45;;;;;;;3.47;3.17;;;;;;;19.08;68.16;100619.84;5051869;27;102621;-71
2021/06/11 02:47:16;;;;;;;4.22;3.60;;;;;;;19.07;68.22;100609.94;5044595;27;102455;-72
2021/06/11 02:49:48;;;;;;;3.90;3.38;;;;;;;19.08;67.98;100617.09;5049826;27;103727;-71
2021/06/11 02:52:21;;;;;;;4.60;3.50;;;;;;;19.08;68.35;100633.63;5048932;27;104029;-72
2021/06/11 02:54:54;;;;;;;3.90;3.50;;;;;;;19.08;68.29;100622.59;5052119;27;102383;-71
2021/06/11 02:57:25;;;;;;;4.45;3.67;;;;;;;19.08;68.48;100630.88;5048319;27;102177;-71
2021/06/11 02:59:56;;;;;;;4.10;3.70;;;;;;;19.08;68.37;100628.94;5052617;27;102500;-71
2021/06/11 03:02:29;;;;;;;4.40;4.00;;;;;;;19.08;68.27;100630.88;5047849;27;103130;-72
2021/06/11 03:04:57;;;;;;;3.85;3.55;;;;;;;19.08;68.14;100628.13;5046201;27;102190;-72
2021/06/11 03:07:29;;;;;;;3.70;2.95;;;;;;;19.08;68.11;100628.13;5051907;27;103641;-71
2021/06/11 03:10:01;;;;;;;5.13;3.67;;;;;;;19.09;68.46;100632.50;5061443;27;102516;-72
2021/06/11 03:12:30;;;;;;;4.10;3.50;;;;;;;19.09;68.49;100629.72;5058310;27;103923;-71
2021/06/11 03:14:57;;;;;;;3.90;3.60;;;;;;;19.09;68.23;100624.22;5049412;27;102961;-72
2021/06/11 03:17:28;;;;;;;4.30;3.97;;;;;;;19.08;68.75;100623.41;5055818;27;102458;-71
2021/06/11 03:19:59;;;;;;;4.63;3.50;;;;;;;19.09;68.47;100618.69;5055594;27;102078;-71
2021/06/11 03:22:31;;;;;;;4.80;3.30;;;;;;;19.08;68.81;100628.94;5054839;27;103888;-71
2021/06/11 03:25:04;;;;;;;3.40;3.10;;;;;;;19.09;68.78;100626.97;5051115;27;102192;-71
2021/06/11 03:27:36;;;;;;;3.47;3.17;;;;;;;19.09;68.21;100624.22;5045448;27;102541;-72
2021/06/11 03:30:07;;;;;;;4.40;4.03;;;;;;;19.08;68.81;100625.38;5050078;27;102716;-71
2021/06/11 03:32:38;;;;;;;3.53;3.22;;;;;;;19.08;68.36;100628.94;5039289;27;103863;-72
2021/06/11 03:35:11;;;;;;;4.68;3.30;;;;;;;19.08;68.82;100633.63;5048583;27;102625;-71
2021/06/11 03:37:38;;;;;;;3.67;3.33;;;;;;;19.09;69.01;100635.25;5051755;27;102623;-72
2021/06/11 03:40:11;;;;;;;3.50;3.20;;;;;;;19.10;68.83;100642.38;5049042;27;102290;-72
2021/06/11 03:42:39;;;;;;;3.50;3.20;;;;;;;19.09;68.35;100652.59;5048479;27;103817;-71
2021/06/11 03:45:08;;;;;;;4.15;3.45;;;;;;;19.09;68.88;100646.28;5047501;27;102528;-71
2021/06/11 03:47:37;;;;;;;4.03;3.37;;;;;;;19.09;68.49;100647.09;5047601;27;102645;-71
2021/06/11 03:50:06;;;;;;;4.18;3.40;;;;;;;19.10;68.88;100639.63;5051884;27;102393;-72
2021/06/11 03:52:37;;;;;;;4.07;3.43;;;;;;;19.10;68.69;100650.66;5049011;27;103936;-72
2021/06/11 03:55:13;;;;;;;3.72;3.40;;;;;;;19.10;68.86;100654.22;5049121;27;102410;-72
2021/06/11 03:57:42;;;;;;;4.35;3.53;;;;;;;19.10;68.64;100654.22;5048876;27;102566;-72
2021/06/11 04:00:10;;;;;;;4.22;3.67;;;;;;;19.10;68.75;100654.22;5046368;27;102300;-72
2021/06/11 04:02:36;;;;;;;3.47;3.17;;;;;;;19.11;68.55;100655.03;5047192;27;104147;-71
2021/06/11 04:05:04;;;;;;;4.72;3.15;;;;;;;19.12;68.79;100651.16;5045035;27;106859;-72
2021/06/11 04:07:36;;;;;;;3.80;3.50;;;;;;;19.11;68.80;100653.09;5047552;27;102516;-72
2021/06/11 04:10:06;;;;;;;5.15;3.63;;;;;;;19.11;68.90;100649.50;5050485;27;103291;-72
2021/06/11 04:12:47;;;;;;;4.78;3.50;;;;;;;19.11;68.88;100658.63;5048810;27;103927;-72
2021/06/11 04:15:15;;;;;;;4.15;3.58;;;;;;;19.11;68.65;100666.88;5061861;27;102483;-72
2021/06/11 04:17:47;;;;;;;3.45;3.17;;;;;;;19.12;69.06;100664.94;5046741;27;102163;-72
2021/06/11 04:20:20;;;;;;;3.53;3.22;;;;;;;19.12;68.86;100674.00;5046984;27;104127;-72
2021/06/11 04:22:49;;;;;;;3.55;3.25;;;;;;;19.13;68.57;100658.28;5045575;27;104944;-72
2021/06/11 04:25:17;;;;;;;3.47;3.17;;;;;;;19.12;68.85;100667.69;5047592;27;102712;-72
2021/06/11 04:27:49;;;;;;;3.80;3.17;;;;;;;19.13;69.07;100664.59;5038325;27;103547;-72
2021/06/11 04:30:16;;;;;;;3.17;2.88;;;;;;;19.14;68.66;100665.41;5052053;27;102342;-72
2021/06/11 04:32:43;;;;;;;3.45;3.15;;;;;;;19.14;68.88;100666.19;5046838;27;104082;-72
2021/06/11 04:35:10;;;;;;;3.78;2.90;;;;;;;19.15;68.79;100669.78;5047625;27;102284;-72
2021/06/11 04:37:38;;;;;;;3.40;3.10;;;;;;;19.14;68.64;100670.91;5050631;27;102720;-72
2021/06/11 04:40:06;;;;;;;2.88;2.63;;;;;;;19.15;69.26;100675.31;5055518;27;102573;-72
2021/06/11 04:42:35;;;;;;;3.80;3.20;;;;;;;19.15;68.65;100672.56;5041353;27;103709;-73
2021/06/11 04:45:04;;;;;;;;;;;;;;;19.12;68.98;100678.72;5044984;27;102151;-71
2021/06/11 04:47:31;;;;;;;5.57;3.63;;;;;;;19.13;68.51;100675.63;5046315;27;102601;-72
2021/06/11 04:49:58;;;;;;;4.32;3.90;;;;;;;19.16;68.59;100674.16;5047730;27;102781;-72
2021/06/11 04:52:24;;;;;;;5.18;3.60;;;;;;;19.17;68.08;100671.06;5045589;27;103923;-72
2021/06/11 04:54:51;;;;;;;16.00;4.57;;;;;;;19.18;68.04;100666.34;5047718;27;102682;-71
2021/06/11 04:57:18;;;;;;;11.85;4.20;;;;;;;19.18;68.59;100675.44;5054629;27;102549;-72
2021/06/11 04:59:44;;;;;;;10.45;4.07;;;;;;;19.21;68.15;100666.50;5048459;27;102508;-72
2021/06/11 05:02:13;;;;;;;10.45;3.88;;;;;;;19.26;68.45;100670.22;5038640;27;102715;-73
2021/06/11 05:04:39;;;;;;;12.82;4.75;;;;;;;19.28;68.27;100660.47;5044367;27;102439;-74
2021/06/11 05:07:06;;;;;;;9.13;4.07;;;;;;;19.33;68.55;100668.59;5045320;27;102562;-74
2021/06/11 05:09:32;;;;;;;7.07;3.90;;;;;;;19.36;68.46;100665.13;5048646;27;102255;-74
2021/06/11 05:11:59;;;;;;;10.02;3.47;;;;;;;19.43;68.82;100662.66;5064946;27;104024;-73
2021/06/11 05:14:26;;;;;;;8.23;4.03;;;;;;;19.49;68.76;100671.59;5047886;27;102782;-73
2021/06/11 05:16:52;;;;;;;12.73;4.03;;;;;;;19.53;68.29;100667.00;5048017;27;103113;-73
2021/06/11 05:19:21;;;;;;;9.82;4.30;;;;;;;19.60;68.22;100666.50;5048995;27;103301;-72
2021/06/11 05:21:48;;;;;;;;;;;;;;;19.66;68.10;100666.00;5045722;27;103882;-72
2021/06/11 05:24:15;;;;;;;11.13;3.63;;;;;;;19.73;68.04;100657.19;5043928;27;102798;-72
2021/06/11 05:26:42;;;;;;;7.45;3.78;;;;;;;19.80;67.64;100664.94;5061261;27;102630;-72
2021/06/11 05:29:08;;;;;;;4.60;3.45;;;;;;;19.87;67.35;100659.69;5049200;27;102394;-72
2021/06/11 05:31:35;;;;;;;6.95;3.50;;;;;;;19.89;67.19;100663.72;5044250;27;102975;-73
2021/06/11 05:34:01;;;;;;;5.07;3.45;;;;;;;19.94;66.76;100659.94;5053664;27;102796;-73
2021/06/11 05:36:29;;;;;;;7.75;3.67;;;;;;;19.97;67.03;100664.00;5048121;27;102221;-74
2021/06/11 05:38:56;;;;;;;3.80;3.33;;;;;;;20.05;66.82;100665.88;5051102;27;102626;-74
2021/06/11 05:41:23;;;;;;;2.97;2.60;;;;;;;20.09;66.53;100667.66;5048270;27;102990;-73
2021/06/11 05:43:52;;;;;;;3.42;3.13;;;;;;;20.14;66.46;100669.41;5043800;27;102436;-73
2021/06/11 05:46:20;;;;;;;6.60;3.63;;;;;;;20.18;66.64;100664.81;5040784;27;105468;-76
2021/06/11 05:48:47;;;;;;;5.57;3.47;;;;;;;20.23;66.42;100666.56;5037340;27;102755;-76
2021/06/11 05:51:14;;;;;;;10.73;3.63;;;;;;;20.27;66.33;100667.53;5042792;27;103841;-75
2021/06/11 05:53:42;;;;;;;6.95;3.15;;;;;;;20.31;66.58;100679.53;5036552;27;102014;-76
2021/06/11 05:56:09;;;;;;;7.55;3.70;;;;;;;20.35;66.50;100675.75;5046488;27;102429;-76
2021/06/11 05:58:36;;;;;;;6.50;3.10;;;;;;;20.40;66.14;100672.75;5047255;27;102216;-76
2021/06/11 06:01:03;;;;;;;7.07;3.35;;;;;;;20.48;66.78;100684.06;5047593;27;104085;-73
2021/06/11 06:03:30;;;;;;;8.77;3.38;;;;;;;20.53;66.33;100672.84;5044212;27;102672;-73
2021/06/11 06:05:56;;;;;;;3.28;2.97;;;;;;;20.55;65.87;100667.78;5047712;27;102382;-73
2021/06/11 06:08:23;;;;;;;4.40;3.00;;;;;;;20.58;65.88;100672.63;5049434;27;102455;-73
2021/06/11 06:10:51;;;;;;;5.78;3.30;;;;;;;20.58;65.33;100672.63;5037822;27;103888;-74
2021/06/11 06:13:20;;;;;;;9.20;3.30;;;;;;;20.60;65.60;100670.34;5041544;27;102697;-74
2021/06/11 06:15:47;;;;;;;5.18;3.30;;;;;;;20.63;65.60;100670.47;5044622;27;102527;-74
2021/06/11 06:18:14;;;;;;;5.47;3.53;;;;;;;20.68;65.42;100674.97;5044466;27;102502;-74
2021/06/11 06:20:41;;;;;;;5.88;3.40;;;;;;;20.72;64.94;100675.09;5040369;27;103783;-74
2021/06/11 06:23:07;;;;;;;5.97;3.28;;;;;;;20.75;64.90;100672.47;5036686;27;102384;-74
2021/06/11 06:25:34;;;;;;;5.95;3.17;;;;;;;20.79;65.06;100676.16;5042233;27;102763;-74
2021/06/11 06:28:02;;;;;;;11.23;3.50;;;;;;;20.82;64.90;100672.72;5044849;27;102276;-74
2021/06/11 06:30:28;;;;;;;8.18;4.55;;;;;;;20.85;64.38;100672.03;5039916;27;103844;-74
2021/06/11 06:32:55;;;;;;;3.58;3.25;;;;;;;20.89;64.16;100666.63;5043181;27;102517;-74
2021/06/11 06:35:21;;;;;;;5.13;3.30;;;;;;;20.92;63.69;100671.47;5041539;27;102144;-74
2021/06/11 06:37:48;;;;;;;9.23;3.72;;;;;;;20.96;63.79;100668.84;5043528;27;103597;-74
2021/06/11 06:40:15;;;;;;;5.25;3.17;;;;;;;20.98;64.05;100659.03;5041995;27;103834;-75
2021/06/11 06:42:42;;;;;;;13.32;3.80;;;;;;;21.02;63.96;100665.47;5039943;27;102126;-75
2021/06/11 06:45:13;;;;;;;11.98;3.72;;;;;;;21.08;64.22;100664.13;5044374;27;102300;-72
2021/06/11 06:47:42;;;;;;;6.53;3.60;;;;;;;21.13;64.21;100674.16;5047855;27;104724;-73
2021/06/11 06:50:11;;;;;;;6.78;3.60;;;;;;;21.16;64.59;100676.22;5045277;27;103864;-76
2021/06/11 06:52:37;;;;;;;16.90;5.32;;;;;;;21.17;64.09;100675.09;5049089;27;102354;-74
2021/06/11 06:55:06;;;;;;;12.98;4.90;;;;;;;21.18;63.89;100679.47;5049661;27;102450;-76
2021/06/11 06:57:32;;;;;;;52.00;7.55;;;;;;;21.21;64.24;100678.78;5046444;27;102259;-78
2021/06/11 06:59:58;;;;;;;26.90;5.15;;;;;;;21.27;63.69;100677.41;5049146;27;103508;-78
2021/06/11 07:02:26;;;;;;;29.42;5.13;;;;;;;21.29;64.00;100680.63;5051695;27;102103;-78
2021/06/11 07:04:53;;;;;;;13.48;4.38;;;;;;;21.30;63.03;100679.47;5051927;27;102265;-78
2021/06/11 07:07:20;;;;;;;11.15;3.72;;;;;;;21.33;63.81;100676.06;5051417;27;102609;-78
2021/06/11 07:09:47;;;;;;;15.95;4.20;;;;;;;21.43;64.24;100679.53;5050352;27;103880;-78
2021/06/11 07:12:13;;;;;;;9.82;3.60;;;;;;;21.48;63.91;100680.09;5049411;27;102513;-78
2021/06/11 07:14:40;;;;;;;9.50;3.20;;;;;;;21.51;63.65;100686.91;5051327;27;102461;-78
2021/06/11 07:17:07;;;;;;;6.55;3.28;;;;;;;21.52;63.19;100682.97;5050120;27;103340;-78
2021/06/11 07:19:36;;;;;;;9.15;4.00;;;;;;;21.50;63.40;100680.56;5059516;27;103929;-78
2021/06/11 07:22:06;;;;;;;6.50;4.22;;;;;;;21.52;63.27;100680.22;5050956;27;102571;-78
2021/06/11 07:24:33;;;;;;;24.20;5.03;;;;;;;21.56;63.90;100683.91;5044220;27;102271;-77
2021/06/11 07:26:59;;;;;;;7.63;3.85;;;;;;;21.62;64.23;100678.94;5046794;27;102513;-77
2021/06/11 07:29:26;;;;;;;6.40;3.65;;;;;;;21.67;64.24;100671.19;5044180;27;102929;-77
2021/06/11 07:31:52;;;;;;;9.40;4.00;;;;;;;21.64;64.12;100674.69;5047991;27;102507;-78
2021/06/11 07:34:19;;;;;;;9.25;3.65;;;;;;;21.63;63.66;100684.13;5051762;27;103018;-77
2021/06/11 07:36:47;;;;;;;8.32;3.95;;;;;;;21.64;63.28;100673.84;5051309;27;102208;-77
2021/06/11 07:39:13;;;;;;;8.93;3.88;;;;;;;21.66;63.73;100683.44;5042316;27;103954;-76
2021/06/11 07:41:40;;;;;;;8.55;3.67;;;;;;;21.67;63.17;100676.72;5051628;27;102283;-77
2021/06/11 07:44:06;;;;;;;21.95;4.53;;;;;;;21.70;63.11;100683.56;5049262;27;102539;-78
2021/06/11 07:46:36;;;;;;;9.52;4.38;;;;;;;21.73;62.72;100683.66;5052076;27;102139;-78
2021/06/11 07:49:03;;;;;;;4.03;3.30;;;;;;;21.74;62.75;100678.94;5049102;27;104401;-77
2021/06/11 07:51:30;;;;;;;15.77;3.80;;;;;;;21.77;63.25;100690.13;5045369;27;102359;-75
2021/06/11 07:53:58;;;;;;;12.27;4.07;;;;;;;21.76;62.50;100688.50;5051418;27;102151;-75
2021/06/11 07:56:24;;;;;;;9.50;4.00;;;;;;;21.75;62.66;100678.59;5040729;27;102557;-75
2021/06/11 07:58:51;;;;;;;13.77;4.78;;;;;;;21.71;63.07;100686.00;5044989;27;103925;-76
2021/06/11 08:01:17;;;;;;;38.85;11.30;;;;;;;21.66;63.18;100680.66;5048184;27;102327;-76
2021/06/11 08:03:44;;;;;;;28.45;6.90;;;;;;;21.61;63.48;100689.22;5045250;27;102738;-74
2021/06/11 08:06:10;;;;;;;8.55;4.78;;;;;;;21.57;63.40;100675.25;5048604;27;102435;-74
2021/06/11 08:08:37;;;;;;;15.00;4.90;;;;;;;21.63;63.77;100681.34;5045178;27;103856;-75
2021/06/11 08:11:04;;;;;;;6.30;3.83;;;;;;;21.66;64.47;100677.91;5045815;27;102794;-75
2021/06/11 08:13:31;;;;;;;6.95;4.40;;;;;;;21.77;64.46;100673.50;5047188;27;102270;-73
2021/06/11 08:15:57;;;;;;;5.03;4.18;;;;;;;21.81;63.63;100677.19;5042828;27;102275;-74
2021/06/11 08:18:24;;;;;;;9.95;4.30;;;;;;;21.85;63.73;100668.97;5048051;27;103866;-74
2021/06/11 08:20:50;;;;;;;13.05;4.90;;;;;;;21.84;63.43;100668.19;5048459;27;102672;-74
2021/06/11 08:23:17;;;;;;;14.60;4.95;;;;;;;21.82;63.27;100662.19;5047106;27;102127;-75
2021/06/11 08:25:43;;;;;;;16.05;5.30;;;;;;;21.84;62.92;100673.72;5043865;27;102231;-75
2021/06/11 08:28:12;;;;;;;10.98;4.53;;;;;;;21.89;62.58;100664.38;5034985;27;103901;-75
2021/06/11 08:30:39;;;;;;;10.68;4.20;;;;;;;21.89;62.50;100669.09;5046941;27;103568;-77
2021/06/11 08:33:06;;;;;;;5.85;4.30;;;;;;;21.94;62.92;100660.56;5047586;27;102472;-75
2021/06/11 08:35:34;;;;;;;9.53;4.93;;;;;;;22.02;62.37;100662.38;5048813;27;102184;-76
2021/06/11 08:38:01;;;;;;;11.27;7.65;;;;;;;22.07;61.98;100662.16;5046886;27;104086;-75
2021/06/11 08:40:28;;;;;;;6.68;5.00;;;;;;;22.15;61.67;100657.66;5048372;27;102758;-75
2021/06/11 08:42:55;;;;;;;8.85;4.38;;;;;;;22.12;62.21;100650.81;5031674;27;102059;-74
2021/06/11 08:45:23;;;;;;;7.45;4.65;;;;;;;22.05;61.74;100656.13;5046014;27;102467;-75
2021/06/11 08:47:51;;;;;;;15.73;4.53;;;;;;;21.98;61.46;100661.47;5040817;27;104016;-75
2021/06/11 08:50:20;;;;;;;15.35;4.82;;;;;;;21.98;62.35;100650.38;5035828;27;102536;-70
2021/06/11 08:52:47;;;;;;;27.90;5.50;;;;;;;21.98;62.01;100656.72;5043448;27;104360;-71
2021/06/11 08:55:15;;;;;;;11.10;4.13;;;;;;;21.95;61.05;100654.66;5042753;27;103516;-71
2021/06/11 08:57:42;;;;;;;5.18;4.28;;;;;;;21.88;61.21;100651.66;5044879;27;103917;-70
2021/06/11 09:00:09;;;;;;;5.85;3.75;;;;;;;21.91;61.89;100655.72;5044222;27;102528;-70
2021/06/11 09:03:13;;;;;;;16.40;4.65;;;;;;;22.02;62.16;100662.38;5043422;27;102526;-72
2021/06/11 09:05:42;;;;;;;13.73;4.10;;;;;;;22.10;63.05;100652.31;5032846;27;102168;-70
2021/06/11 09:08:21;;;;;;;18.52;4.93;;;;;;;22.12;62.44;100650.81;5053977;27;103874;-70
2021/06/11 09:10:49;;;;;;;23.33;5.22;;;;;;;22.18;62.29;100663.31;5047286;27;102454;-70
2021/06/11 09:13:26;;;;;;;16.55;4.50;;;;;;;22.18;62.08;100648.59;5034257;27;102195;-71
2021/06/11 09:16:06;;;;;;;15.10;4.80;;;;;;;22.20;61.47;100647.09;5037722;27;102612;-70
2021/06/11 09:18:46;;;;;;;42.42;7.85;;;;;;;22.26;61.56;100656.00;5037056;27;104092;-70
2021/06/11 09:21:27;;;;;;;18.92;5.65;;;;;;;22.22;62.01;100650.34;5038456;27;102593;-70
2021/06/11 09:24:31;;;;;;;18.73;5.05;;;;;;;22.15;61.89;100657.66;5036243;27;104993;-70
2021/06/11 09:27:11;;;;;;;15.65;4.15;;;;;;;22.08;61.39;100655.44;5037028;27;102529;-68
2021/06/11 09:29:41;;;;;;;12.48;4.30;;;;;;;22.08;61.54;100655.44;5038430;27;102745;-71
2021/06/11 09:32:22;;;;;;;9.95;3.97;;;;;;;22.04;61.70;100649.00;5029966;27;102835;-71
2021/06/11 09:34:52;;;;;;;10.18;4.30;;;;;;;22.03;61.74;100652.91;5039124;27;102517;-71
2021/06/11 09:37:20;;;;;;;7.45;4.00;;;;;;;22.02;61.53;100648.53;5047210;27;102279;-71
2021/06/11 09:39:50;;;;;;;100.95;13.30;;;;;;;22.09;62.45;100629.34;5044499;27;104030;-72
2021/06/11 09:42:18;;;;;;;19.90;5.43;;;;;;;22.17;62.25;100647.81;5048573;27;102764;-71
2021/06/11 09:44:56;;;;;;;18.03;4.93;;;;;;;22.30;61.93;100637.50;5044144;27;102144;-72
2021/06/11 09:47:33;;;;;;;13.27;4.20;;;;;;;22.38;61.83;100644.03;5044649;27;102522;-73
2021/06/11 09:50:11;;;;;;;22.90;5.20;;;;;;;22.42;61.08;100642.19;5050009;27;102744;-76
2021/06/11 09:52:55;;;;;;;19.48;4.90;;;;;;;22.37;61.57;100639.66;5044385;27;102677;-72
2021/06/11 09:55:26;;;;;;;10.65;4.38;;;;;;;22.31;61.04;100637.13;5049747;27;105381;-72
2021/06/11 09:58:12;;;;;;;8.75;4.13;;;;;;;22.28;60.76;100632.28;5061097;27;102581;-72
2021/06/11 10:00:47;;;;;;;7.88;4.05;;;;;;;22.33;61.06;100634.03;5044375;27;104101;-72
2021/06/11 10:03:16;;;;;;;4.80;3.65;;;;;;;22.43;60.71;100627.13;5048397;27;102349;-72
2021/06/11 10:05:45;;;;;;;9.63;4.22;;;;;;;22.46;60.88;100627.25;5050376;27;102537;-72
2021/06/11 10:08:13;;;;;;;10.40;4.22;;;;;;;22.51;61.09;100628.97;5054768;27;102196;-73
2021/06/11 10:10:42;;;;;;;6.33;4.37;;;;;;;22.46;61.13;100623.66;5051891;27;102701;-73
2021/06/11 10:13:10;;;;;;;43.38;8.00;;;;;;;22.46;60.62;100634.75;5049510;27;104219;-72
2021/06/11 10:15:37;;;;;;;22.92;5.60;;;;;;;22.45;60.93;100624.84;5054528;27;102503;-71
2021/06/11 10:18:05;;;;;;;10.55;5.22;;;;;;;22.44;60.67;100626.00;5048100;27;103954;-71
2021/06/11 10:20:31;;;;;;;11.90;4.18;;;;;;;22.42;60.42;100631.09;5039208;27;104182;-72
2021/06/11 10:23:00;;;;;;;11.10;4.32;;;;;;;22.42;61.29;100626.34;5045643;27;102632;-72
2021/06/11 10:25:27;;;;;;;7.40;4.10;;;;;;;22.40;61.00;100634.22;5044315;27;102586;-73
2021/06/11 10:27:55;;;;;;;12.35;4.20;;;;;;;22.35;60.57;100619.78;5044740;27;102643;-68
2021/06/11 10:30:26;;;;;;;16.97;4.93;;;;;;;22.30;60.65;100629.97;5046328;27;103877;-73
2021/06/11 10:32:53;;;;;;;9.85;4.35;;;;;;;22.32;61.11;100632.38;5036792;27;102314;-79
2021/06/11 10:35:42;;;;;;;14.65;4.65;;;;;;;22.31;60.77;100631.59;5042455;27;102920;-73
2021/06/11 10:38:32;;;;;;;37.25;5.57;;;;;;;22.32;61.53;100646.25;5037653;27;102688;-74
2021/06/11 10:41:00;;;;;;;20.50;5.47;;;;;;;22.28;61.42;100648.91;5035400;27;102798;-74
2021/06/11 10:43:29;;;;;;;16.90;4.47;;;;;;;22.26;60.47;100651.25;5045757;27;105516;-74
2021/06/11 10:45:57;;;;;;;15.45;4.40;;;;;;;22.16;60.10;100640.66;5047001;27;102647;-74
2021/06/11 10:48:25;;;;;;;8.93;3.97;;;;;;;22.04;59.05;100654.53;5052724;27;102533;-74
2021/06/11 10:50:52;;;;;;;14.40;4.28;;;;;;;21.95;59.58;100654.66;5042550;27;102713;-74
2021/06/11 10:53:29;;;;;;;6.07;3.97;;;;;;;21.87;58.99;100649.25;5045259;27;102637;-74
2021/06/11 10:56:15;;;;;;;10.65;4.32;;;;;;;21.80;59.52;100650.66;5039513;27;102413;-73
2021/06/11 10:58:44;;;;;;;33.45;6.05;;;;;;;21.76;60.78;100646.97;5043526;27;102613;-70
2021/06/11 11:01:26;;;;;;;11.63;4.50;;;;;;;21.72;60.95;100651.59;5043164;27;103675;-73
2021/06/11 11:03:53;;;;;;;13.77;4.28;;;;;;;21.70;61.66;100640.03;5049875;27;102231;-73
2021/06/11 11:06:35;;;;;;;20.60;5.07;;;;;;;21.70;62.48;100626.19;5048093;27;102327;-72
2021/06/11 11:09:06;;;;;;;8.85;4.63;;;;;;;21.74;63.18;100624.34;5051030;27;104003;-73
2021/06/11 11:11:46;;;;;;;8.68;4.95;;;;;;;21.81;63.05;100612.66;5047715;27;102719;-69
2021/06/11 11:14:39;;;;;;;10.32;4.78;;;;;;;21.85;63.74;100610.81;5047783;27;102681;-69
2021/06/11 11:17:07;;;;;;;10.15;5.35;;;;;;;21.84;63.60;100609.19;5047358;27;102541;-73
2021/06/11 11:19:51;;;;;;;9.52;4.45;;;;;;;21.79;63.92;100610.25;5049721;27;106197;-74
2021/06/11 11:22:39;;;;;;;10.48;4.60;;;;;;;21.75;63.85;100628.75;5045471;27;102433;-75
2021/06/11 11:25:13;;;;;;;14.15;5.45;;;;;;;21.70;63.68;100622.63;5035414;27;102473;-75
2021/06/11 11:27:41;;;;;;;6.75;4.28;;;;;;;21.65;63.66;100620.09;5043727;27;102309;-74